Time,TemperatureF,DewpointF,PressureIn,WindDirection,WindDirectionDegrees,WindSpeedMPH,WindSpeedGustMPH,Humidity,HourlyPrecipIn,Conditions,Clouds,dailyrainin,SoftwareType,DateUTC
2013-11-07 00:00:00,52.6,49.5,30.08,WSW,248,0.0,0.0,89,0.00,,---,0.00,VWS V14.01,2013-11-07 05:00:00,
2013-11-07 00:30:00,52.6,49.5,30.08,WSW,248,0.0,0.0,89,0.00,,---,0.00,VWS V14.01,2013-11-07 05:30:00,
2013-11-07 01:00:00,52.6,49.5,30.06,WSW,248,0.0,0.0,89,0.00,,---,0.00,VWS V14.01,2013-11-07 06:00:00,
2013-11-07 01:30:00,52.6,49.5,30.09,WSW,248,0.0,0.0,89,0.00,,---,0.00,VWS V14.01,2013-11-07 06:30:00,
2013-11-07 02:00:00,52.6,49.5,30.08,WSW,248,0.0,0.0,89,0.00,,---,0.00,VWS V14.01,2013-11-07 07:00:00,
2013-11-07 02:30:00,52.6,49.5,30.06,WSW,248,0.0,0.0,89,0.00,,---,0.00,VWS V14.01,2013-11-07 07:30:00,
2013-11-07 03:00:00,52.6,49.5,30.04,WSW,248,0.0,0.0,89,0.00,,---,0.00,VWS V14.01,2013-11-07 08:00:00,
2013-11-07 03:30:00,52.6,49.5,30.02,WSW,248,0.0,0.0,89,0.00,,---,0.00,VWS V14.01,2013-11-07 08:30:00,
2013-11-07 04:00:00,52.6,49.5,30.03,WSW,248,0.0,0.0,89,0.00,,---,0.00,VWS V14.01,2013-11-07 09:00:00,
2013-11-07 04:30:00,52.6,49.5,30.03,WSW,248,0.0,0.0,89,0.00,,---,0.00,VWS V14.01,2013-11-07 09:30:00,
2013-11-07 05:00:00,52.6,49.5,30.02,WSW,248,0.0,0.0,89,0.00,,---,0.00,VWS V14.01,2013-11-07 10:00:00,
2013-11-07 05:30:00,52.6,49.5,29.97,WSW,248,0.0,0.0,89,0.00,,---,0.00,VWS V14.01,2013-11-07 10:30:00,
2013-11-07 06:00:00,52.6,49.5,29.97,WSW,248,0.0,0.0,89,0.00,,---,0.00,VWS V14.01,2013-11-07 11:00:00,
2013-11-07 06:30:00,52.6,49.5,29.96,WSW,248,0.0,0.0,89,0.00,,---,0.00,VWS V14.01,2013-11-07 11:30:00,
2013-11-07 07:00:00,52.6,49.5,29.97,WSW,248,0.0,0.0,89,0.00,,---,0.00,VWS V14.01,2013-11-07 12:00:00,
2013-11-07 07:30:00,52.6,49.5,29.97,WSW,248,0.0,0.0,89,0.00,,---,0.00,VWS V14.01,2013-11-07 12:30:00,
2013-11-07 08:00:00,52.6,49.5,29.97,WSW,248,0.0,0.0,89,0.00,,---,0.00,VWS V14.01,2013-11-07 13:00:00,
2013-11-07 08:30:00,52.6,49.5,29.97,WSW,248,0.0,0.0,89,0.00,,---,0.00,VWS V14.01,2013-11-07 13:30:00,
2013-11-07 09:00:00,52.6,49.5,29.96,WSW,248,0.0,0.0,89,0.00,,---,0.00,VWS V14.01,2013-11-07 14:00:00,
2013-11-07 09:30:00,52.2,50.2,30.02,WNW,292,5.0,14.0,93,0.00,,---,0.00,VWS V14.01,2013-11-07 14:30:00,
2013-11-07 10:00:00,52.7,50.5,30.01,WNW,292,5.0,18.0,92,0.00,,---,0.00,VWS V14.01,2013-11-07 15:00:00,
2013-11-07 10:30:00,51.5,49.5,30.03,WNW,292,6.0,23.0,93,0.00,,---,0.00,VWS V14.01,2013-11-07 15:30:00,
2013-11-07 11:00:00,52.2,48.2,30.01,WNW,292,6.0,16.0,86,0.00,,---,0.00,VWS V14.01,2013-11-07 16:00:00,
2013-11-07 11:30:00,53.5,49.1,30.01,WNW,292,6.0,16.0,85,0.00,,---,0.00,VWS V14.01,2013-11-07 16:30:00,
2013-11-07 12:00:00,53.7,48.7,30.00,WNW,292,4.0,13.0,83,0.00,,---,0.00,VWS V14.01,2013-11-07 17:00:00,
2013-11-07 12:30:00,53.9,48.2,30.00,West,270,5.0,22.0,81,0.00,,---,0.00,VWS V14.01,2013-11-07 17:30:00,
2013-11-07 13:00:00,53.4,46.0,30.00,WNW,292,5.0,17.0,76,0.00,,---,0.00,VWS V14.01,2013-11-07 18:00:00,
2013-11-07 13:30:00,52.9,44.8,30.01,WNW,292,5.0,17.0,74,0.00,,---,0.00,VWS V14.01,2013-11-07 18:30:00,
2013-11-07 14:00:00,51.9,42.8,30.01,WNW,292,4.0,14.0,71,0.00,,---,0.00,VWS V14.01,2013-11-07 19:00:00,
2013-11-07 14:30:00,51.7,39.9,30.02,WNW,292,3.0,16.0,64,0.00,,---,0.00,VWS V14.01,2013-11-07 19:30:00,
2013-11-07 15:00:00,50.5,32.6,30.03,WNW,292,6.0,19.0,50,0.00,,---,0.00,VWS V14.01,2013-11-07 20:00:00,
2013-11-07 15:30:00,50.2,29.1,30.03,WNW,292,4.0,15.0,44,0.00,,---,0.00,VWS V14.01,2013-11-07 20:30:00,
2013-11-07 16:00:00,47.7,26.9,30.07,WNW,292,5.0,17.0,44,0.00,,---,0.00,VWS V14.01,2013-11-07 21:00:00,
2013-11-07 16:30:00,46.0,26.4,30.09,West,270,4.0,15.0,46,0.00,,---,0.00,VWS V14.01,2013-11-07 21:30:00,
2013-11-07 17:00:00,44.7,25.2,29.96,WSW,248,2.0,11.0,46,0.00,,---,0.00,VWS V14.01,2013-11-07 22:00:00,
2013-11-07 17:30:00,44.7,25.2,29.96,WSW,248,2.0,0.0,46,0.00,,---,0.00,VWS V14.01,2013-11-07 22:30:00,
2013-11-07 18:00:00,44.7,25.2,29.97,WSW,248,2.0,0.0,46,0.00,,---,0.00,VWS V14.01,2013-11-07 23:00:00,
2013-11-07 18:30:00,44.7,25.2,29.97,WSW,248,2.0,0.0,46,0.00,,---,0.00,VWS V14.01,2013-11-07 23:30:00,
2013-11-07 19:00:00,44.7,25.2,29.98,WSW,248,2.0,0.0,46,0.00,,---,0.00,VWS V14.01,2013-11-08 00:00:00,
2013-11-07 19:30:00,44.7,25.2,29.98,WSW,248,2.0,0.0,46,0.00,,---,0.00,VWS V14.01,2013-11-08 00:30:00,
2013-11-07 20:00:00,44.7,25.2,29.97,WSW,248,2.0,0.0,46,0.00,,---,0.00,VWS V14.01,2013-11-08 01:00:00,
2013-11-07 20:30:00,44.7,25.2,29.97,WSW,248,2.0,0.0,46,0.00,,---,0.00,VWS V14.01,2013-11-08 01:30:00,
2013-11-07 21:00:00,44.7,25.2,29.98,WSW,248,2.0,0.0,46,0.00,,---,0.00,VWS V14.01,2013-11-08 02:00:00,
2013-11-07 21:30:00,44.7,25.2,30.03,WSW,248,2.0,0.0,46,0.00,,---,0.00,VWS V14.01,2013-11-08 02:30:00,
2013-11-07 22:00:00,44.7,25.2,30.03,WSW,248,2.0,0.0,46,0.00,,---,0.00,VWS V14.01,2013-11-08 03:00:00,
2013-11-07 22:30:00,44.7,25.2,30.02,WSW,248,2.0,0.0,46,0.00,,---,0.00,VWS V14.01,2013-11-08 03:30:00,
2013-11-07 23:00:00,44.7,25.2,30.03,WSW,248,2.0,0.0,46,0.00,,---,0.00,VWS V14.01,2013-11-08 04:00:00,
2013-11-07 23:30:00,44.7,25.2,30.03,WSW,248,2.0,0.0,46,0.00,,---,0.00,VWS V14.01,2013-11-08 04:30:00,